Time;durP1;ratioP1;P1;durP2;ratioP2;P2;SDS_P1;SDS_P2;PMS_P1;PMS_P2;Temp;Humidity;BMP_temperature;BMP_pressure;BME280_temperature;BME280_humidity;BME280_pressure;Samples;Min_cycle;Max_cycle;Signal;HPM_P1;HPM_P2
2024/01/26 00:02:16;;;;;;;3.23;3.10;;;9.20;99.90;;;;;;5051886;28;20650;-77
2024/01/26 00:04:44;;;;;;;1.63;1.52;;;9.30;99.90;;;;;;5051574;28;20534;-77
2024/01/26 00:07:11;;;;;;;2.90;2.55;;;9.20;99.90;;;;;;5051610;28;20273;-77
2024/01/26 00:09:38;;;;;;;11.38;5.30;;;9.30;99.90;;;;;;5051785;28;20636;-77
2024/01/26 00:12:06;;;;;;;4.68;3.70;;;9.30;99.90;;;;;;5051696;28;20218;-77
2024/01/26 00:14:33;;;;;;;2.05;1.45;;;9.30;99.90;;;;;;5051599;28;20272;-76
2024/01/26 00:17:00;;;;;;;5.32;3.58;;;9.30;99.90;;;;;;5051227;28;20211;-76
2024/01/26 00:19:26;;;;;;;1.87;1.40;;;9.30;99.90;;;;;;5051925;28;20628;-77
2024/01/26 00:21:55;;;;;;;3.70;2.33;;;9.30;99.90;;;;;;5051369;28;20484;-75
2024/01/26 00:24:22;;;;;;;5.60;3.65;;;9.30;99.90;;;;;;5051131;28;20449;-77
2024/01/26 00:26:49;;;;;;;8.48;5.25;;;9.30;99.90;;;;;;5050988;28;20223;-75
2024/01/26 00:29:16;;;;;;;7.15;4.68;;;9.30;99.90;;;;;;5051507;28;20195;-77
2024/01/26 00:31:43;;;;;;;8.17;6.57;;;9.30;99.90;;;;;;5051133;28;20218;-76
2024/01/26 00:34:10;;;;;;;9.27;5.32;;;9.30;99.90;;;;;;5051600;28;20441;-77
2024/01/26 00:36:37;;;;;;;9.93;2.65;;;9.30;99.90;;;;;;5050605;28;20664;-77
2024/01/26 00:39:06;;;;;;;11.13;5.10;;;9.30;99.90;;;;;;5051191;28;20203;-77
2024/01/26 00:41:33;;;;;;;3.72;3.42;;;9.30;99.90;;;;;;5051559;28;20445;-77
2024/01/26 00:44:00;;;;;;;8.50;6.20;;;9.30;99.90;;;;;;5035337;28;20199;-75
2024/01/26 00:46:27;;;;;;;4.18;3.17;;;9.30;99.90;;;;;;5051091;28;20218;-77
2024/01/26 00:48:54;;;;;;;5.43;4.90;;;9.30;99.90;;;;;;5051220;28;20207;-77
2024/01/26 00:51:21;;;;;;;1.60;1.50;;;9.30;99.90;;;;;;5051203;28;20542;-77
2024/01/26 00:53:48;;;;;;;6.57;5.93;;;9.30;99.90;;;;;;5051033;28;20388;-77
2024/01/26 00:56:16;;;;;;;1.58;1.50;;;9.30;99.90;;;;;;5050761;28;20249;-77
2024/01/26 00:58:43;;;;;;;7.72;6.22;;;9.30;99.90;;;;;;5050863;28;20338;-77
2024/01/26 01:01:11;;;;;;;6.18;4.85;;;9.30;99.90;;;;;;5051194;28;20199;-77
2024/01/26 01:03:38;;;;;;;2.30;2.10;;;9.30;99.90;;;;;;5050973;28;20195;-77
2024/01/26 01:06:05;;;;;;;1.73;1.63;;;9.30;99.90;;;;;;5050721;28;20442;-77
2024/01/26 01:08:32;;;;;;;2.25;2.10;;;9.30;99.90;;;;;;5050986;28;20214;-77
2024/01/26 01:10:59;;;;;;;12.18;6.88;;;9.30;99.90;;;;;;5050671;28;20244;-77
2024/01/26 01:13:28;;;;;;;4.22;2.25;;;9.30;99.90;;;;;;5050911;28;20199;-77
2024/01/26 01:15:55;;;;;;;2.47;1.95;;;9.30;99.90;;;;;;5050502;28;20207;-77
2024/01/26 01:18:22;;;;;;;2.33;2.13;;;9.30;99.90;;;;;;5051061;28;20594;-76
2024/01/26 01:20:49;;;;;;;10.05;4.72;;;9.30;99.90;;;;;;5050584;28;20245;-77
2024/01/26 01:23:16;;;;;;;3.97;3.30;;;9.30;99.90;;;;;;5050892;28;20199;-77
2024/01/26 01:25:43;;;;;;;8.60;3.07;;;9.30;99.90;;;;;;5050747;28;20244;-77
2024/01/26 01:28:10;;;;;;;1.23;1.13;;;9.30;99.90;;;;;;5050635;28;21033;-77
2024/01/26 01:30:39;;;;;;;7.78;4.68;;;9.30;99.90;;;;;;5050790;28;20867;-75
2024/01/26 01:33:06;;;;;;;3.27;2.73;;;9.30;99.90;;;;;;5050758;28;20284;-76
2024/01/26 01:35:32;;;;;;;4.43;3.53;;;9.30;99.90;;;;;;5050411;28;20920;-76
2024/01/26 01:37:59;;;;;;;3.53;3.38;;;9.30;99.90;;;;;;5050353;28;20515;-77
2024/01/26 01:40:26;;;;;;;8.98;4.93;;;9.40;99.90;;;;;;5050908;28;20257;-76
2024/01/26 01:42:53;;;;;;;2.27;2.00;;;9.40;99.90;;;;;;5050679;28;20245;-77
2024/01/26 01:45:21;;;;;;;3.80;3.50;;;9.40;99.90;;;;;;5050529;28;20446;-75
2024/01/26 01:47:49;;;;;;;6.00;2.60;;;9.40;99.90;;;;;;5050346;28;20465;-77
2024/01/26 01:50:16;;;;;;;7.78;6.90;;;9.40;99.90;;;;;;5054049;28;20503;-76
2024/01/26 01:52:45;;;;;;;12.60;7.40;;;9.30;99.90;;;;;;5054218;28;20783;-77
2024/01/26 01:55:16;;;;;;;6.10;5.07;;;9.40;99.90;;;;;;5054606;28;20285;-77
2024/01/26 01:57:44;;;;;;;7.23;4.17;;;9.40;99.90;;;;;;5054024;28;20472;-76
2024/01/26 02:00:15;;;;;;;4.68;2.75;;;9.40;99.90;;;;;;5054304;28;20437;-77
2024/01/26 02:02:44;;;;;;;4.20;3.00;;;9.40;99.90;;;;;;5054009;28;20199;-77
2024/01/26 02:05:13;;;;;;;2.67;2.08;;;9.50;99.90;;;;;;5053948;28;20662;-76
2024/01/26 02:07:40;;;;;;;1.80;1.73;;;9.50;99.90;;;;;;5053640;28;20265;-76
2024/01/26 02:12:36;;;;;;;3.90;3.03;;;9.40;99.90;;;;;;5101564;22;20493;-81
2024/01/26 02:15:04;;;;;;;3.28;3.05;;;9.50;99.90;;;;;;5071092;28;20476;-81
2024/01/26 02:17:32;;;;;;;5.33;4.83;;;9.50;99.90;;;;;;5082020;28;20202;-80
2024/01/26 02:19:59;;;;;;;6.43;4.88;;;9.50;99.90;;;;;;5083240;28;20472;-81
2024/01/26 02:22:28;;;;;;;2.20;1.67;;;9.50;99.90;;;;;;5067085;28;20241;-81
2024/01/26 02:24:56;;;;;;;17.83;8.85;;;9.50;99.90;;;;;;5066363;28;20199;-81
2024/01/26 02:27:23;;;;;;;7.57;6.87;;;9.50;99.90;;;;;;5065919;28;20229;-79
2024/01/26 02:29:50;;;;;;;3.47;2.83;;;9.50;99.90;;;;;;5066714;28;20476;-81
2024/01/26 02:32:17;;;;;;;4.00;3.50;;;9.50;99.90;;;;;;5066178;28;20477;-81
2024/01/26 02:34:44;;;;;;;2.17;2.08;;;9.50;99.90;;;;;;5065946;28;20437;-80
2024/01/26 02:37:11;;;;;;;7.93;2.83;;;9.50;99.90;;;;;;5065723;28;20195;-81
2024/01/26 02:39:38;;;;;;;15.43;6.27;;;9.50;99.90;;;;;;5066699;28;20203;-81
2024/01/26 02:42:07;;;;;;;2.33;1.75;;;9.50;99.90;;;;;;5050156;28;20491;-81
2024/01/26 02:44:34;;;;;;;4.85;4.05;;;9.50;99.90;;;;;;5065359;28;20195;-81
2024/01/26 02:47:01;;;;;;;1.58;0.93;;;9.50;99.90;;;;;;5065130;28;20225;-81
2024/01/26 02:49:30;;;;;;;10.45;6.93;;;9.50;99.90;;;;;;5065611;28;20199;-81
2024/01/26 02:51:57;;;;;;;1.48;0.88;;;9.50;99.90;;;;;;5065676;28;20219;-81
2024/01/26 02:54:24;;;;;;;2.03;1.65;;;9.50;99.90;;;;;;5065940;28;20195;-81
2024/01/26 02:56:51;;;;;;;5.73;5.20;;;9.50;99.90;;;;;;5065871;28;20229;-81
2024/01/26 02:59:20;;;;;;;1.73;1.58;;;9.60;99.90;;;;;;5065504;28;20441;-81
2024/01/26 03:01:47;;;;;;;1.53;1.13;;;9.60;99.90;;;;;;5065331;28;20218;-80
2024/01/26 03:04:14;;;;;;;2.93;2.67;;;9.60;99.90;;;;;;5065701;28;20481;-81
2024/01/26 03:06:41;;;;;;;3.47;3.28;;;9.60;99.90;;;;;;5064892;28;20471;-81
2024/01/26 03:09:08;;;;;;;2.80;2.30;;;9.60;99.90;;;;;;5065752;28;20203;-81
2024/01/26 03:11:37;;;;;;;2.77;2.37;;;9.60;99.90;;;;;;5064960;28;20496;-81
2024/01/26 03:14:05;;;;;;;3.43;2.73;;;9.60;99.90;;;;;;5066296;28;20275;-78
2024/01/26 03:16:34;;;;;;;4.18;2.88;;;9.60;99.90;;;;;;5071004;28;20446;-79
2024/01/26 03:19:01;;;;;;;1.42;1.38;;;9.60;99.90;;;;;;5071546;28;20199;-80
2024/01/26 03:21:28;;;;;;;7.90;5.77;;;9.60;99.90;;;;;;5068730;28;20241;-81
2024/01/26 03:23:55;;;;;;;4.50;4.00;;;9.60;99.90;;;;;;5066668;28;20449;-81
2024/01/26 03:26:22;;;;;;;0.40;0.40;;;9.60;99.90;;;;;;5066437;28;20449;-80
2024/01/26 03:28:50;;;;;;;1.35;1.27;;;9.60;99.90;;;;;;5066843;28;20233;-81
2024/01/26 03:31:17;;;;;;;5.83;1.07;;;9.60;99.90;;;;;;5065187;28;20280;-81
2024/01/26 03:33:46;;;;;;;2.35;1.85;;;9.60;99.90;;;;;;5065232;28;20477;-80
2024/01/26 03:36:13;;;;;;;5.25;4.50;;;9.60;99.90;;;;;;5065361;28;20195;-81
2024/01/26 03:38:40;;;;;;;1.98;1.35;;;9.60;99.90;;;;;;5065631;28;20207;-81
2024/01/26 03:41:07;;;;;;;0.55;0.55;;;9.60;99.90;;;;;;5049737;28;20261;-81
2024/01/26 03:43:35;;;;;;;1.77;1.13;;;9.60;99.90;;;;;;5065428;28;20293;-80
2024/01/26 03:46:03;;;;;;;2.13;1.98;;;9.60;99.90;;;;;;5063714;28;20582;-81
2024/01/26 03:48:30;;;;;;;3.05;2.72;;;9.60;99.90;;;;;;5067794;28;20203;-81
2024/01/26 03:50:59;;;;;;;7.10;3.90;;;9.60;99.90;;;;;;5065526;28;20223;-81
2024/01/26 03:53:26;;;;;;;1.95;1.10;;;9.50;99.90;;;;;;5065521;28;20280;-82
2024/01/26 03:55:54;;;;;;;2.23;2.10;;;9.60;99.90;;;;;;5065113;28;20195;-81
2024/01/26 03:58:21;;;;;;;2.00;1.40;;;9.60;99.90;;;;;;5065108;28;20498;-82
2024/01/26 04:00:48;;;;;;;2.00;1.88;;;9.60;99.90;;;;;;5064377;28;20725;-81
2024/01/26 04:03:16;;;;;;;0.95;0.80;;;9.60;99.90;;;;;;5065165;28;20195;-80
2024/01/26 04:05:43;;;;;;;2.15;2.05;;;9.60;99.90;;;;;;5064012;28;20256;-81
2024/01/26 04:08:12;;;;;;;7.95;3.33;;;9.60;99.90;;;;;;5048911;28;20203;-80
2024/01/26 04:10:39;;;;;;;1.02;0.98;;;9.60;99.90;;;;;;5062016;28;20590;-81
2024/01/26 04:13:06;;;;;;;0.40;0.30;;;9.60;99.90;;;;;;5061271;28;20207;-79
2024/01/26 04:15:33;;;;;;;1.58;0.68;;;9.60;99.90;;;;;;5063561;28;20203;-80
2024/01/26 04:18:00;;;;;;;2.25;2.15;;;9.60;99.90;;;;;;5064561;28;20221;-80
2024/01/26 04:20:27;;;;;;;3.08;2.80;;;9.60;99.90;;;;;;5060180;28;20222;-80
2024/01/26 04:22:54;;;;;;;6.93;3.90;;;9.60;99.90;;;;;;5062261;28;20200;-81
2024/01/26 04:25:23;;;;;;;0.60;0.60;;;9.60;99.90;;;;;;5060718;28;20195;-80
2024/01/26 04:27:49;;;;;;;6.45;2.63;;;9.60;99.90;;;;;;5062679;28;20210;-81
2024/01/26 04:30:18;;;;;;;1.33;0.95;;;9.60;99.90;;;;;;5061489;28;20226;-80
2024/01/26 04:32:45;;;;;;;1.10;1.08;;;9.60;99.90;;;;;;5061505;28;20581;-79
2024/01/26 04:35:12;;;;;;;2.15;2.05;;;9.60;99.90;;;;;;5062093;28;20199;-81
2024/01/26 04:37:39;;;;;;;4.68;1.75;;;9.60;99.90;;;;;;5064729;28;20207;-81
2024/01/26 04:40:08;;;;;;;0.73;0.70;;;9.60;99.90;;;;;;5065194;28;20192;-80
2024/01/26 04:42:36;;;;;;;3.90;3.20;;;9.70;99.90;;;;;;5064401;28;20215;-81
2024/01/26 04:45:03;;;;;;;1.80;1.50;;;9.70;99.90;;;;;;5064724;28;20249;-81
2024/01/26 04:47:30;;;;;;;1.57;1.40;;;9.70;99.90;;;;;;5064562;28;20199;-81
2024/01/26 04:49:57;;;;;;;0.40;0.40;;;9.70;99.90;;;;;;5064767;28;20496;-81
2024/01/26 04:52:26;;;;;;;2.58;2.38;;;9.70;99.90;;;;;;5064709;28;20246;-81
2024/01/26 04:54:53;;;;;;;2.15;1.55;;;9.70;99.90;;;;;;5064755;28;20194;-81
2024/01/26 04:57:20;;;;;;;1.98;1.70;;;9.70;99.90;;;;;;5064488;28;20200;-80
2024/01/26 04:59:49;;;;;;;2.28;2.13;;;9.70;99.90;;;;;;5063204;28;20203;-80
2024/01/26 05:02:16;;;;;;;1.50;1.02;;;9.70;99.90;;;;;;5063416;28;20242;-78
2024/01/26 05:04:43;;;;;;;2.65;2.45;;;9.70;99.90;;;;;;5060686;28;20268;-79
2024/01/26 05:07:10;;;;;;;7.22;2.55;;;9.70;99.90;;;;;;5060343;28;20272;-80
2024/01/26 05:09:37;;;;;;;1.60;1.33;;;9.70;99.90;;;;;;5061000;28;20203;-79
2024/01/26 05:12:06;;;;;;;2.78;1.88;;;9.80;99.90;;;;;;5061467;28;20495;-80
2024/01/26 05:14:35;;;;;;;3.83;2.45;;;9.80;99.90;;;;;;5060936;28;20674;-79
2024/01/26 05:17:04;;;;;;;0.80;0.80;;;9.80;99.90;;;;;;5061000;28;20202;-79
2024/01/26 05:19:31;;;;;;;3.33;2.97;;;9.80;99.90;;;;;;5063060;28;20199;-79
2024/01/26 05:21:59;;;;;;;3.42;3.22;;;9.80;99.90;;;;;;5061125;28;20219;-80
2024/01/26 05:24:26;;;;;;;2.85;2.65;;;9.90;99.90;;;;;;5064762;28;20225;-80
2024/01/26 05:26:54;;;;;;;2.05;1.83;;;9.90;99.90;;;;;;5071592;28;20183;-81
2024/01/26 05:29:22;;;;;;;1.90;1.70;;;9.90;99.90;;;;;;5075640;28;20233;-81
2024/01/26 05:31:49;;;;;;;2.47;2.30;;;10.00;99.90;;;;;;5074684;28;20229;-80
2024/01/26 05:34:18;;;;;;;1.35;1.25;;;10.00;99.90;;;;;;5074575;28;20546;-81
2024/01/26 05:36:45;;;;;;;11.53;4.00;;;10.00;99.90;;;;;;5068065;28;20260;-81
2024/01/26 05:39:12;;;;;;;2.15;1.55;;;9.90;99.90;;;;;;5060166;28;20503;-80
2024/01/26 05:41:39;;;;;;;1.60;1.23;;;10.00;99.90;;;;;;5068784;28;20222;-80
2024/01/26 05:44:07;;;;;;;0.60;0.60;;;9.90;99.90;;;;;;5068215;28;20445;-80
2024/01/26 05:46:34;;;;;;;0.40;0.40;;;10.00;99.90;;;;;;5067635;28;20445;-81
2024/01/26 05:49:01;;;;;;;1.77;1.33;;;10.00;99.90;;;;;;5068242;28;20203;-81
2024/01/26 05:51:29;;;;;;;2.75;2.55;;;9.90;99.90;;;;;;5050260;28;20284;-80
2024/01/26 05:53:56;;;;;;;0.80;0.80;;;9.90;99.90;;;;;;5065509;28;20272;-81
2024/01/26 05:56:24;;;;;;;0.73;0.65;;;9.90;99.90;;;;;;5065851;28;20198;-79
2024/01/26 05:58:52;;;;;;;0.40;0.40;;;9.90;99.90;;;;;;5065865;28;20203;-81
2024/01/26 06:01:19;;;;;;;1.33;0.90;;;9.90;99.90;;;;;;5065567;28;20226;-81
2024/01/26 06:03:46;;;;;;;1.20;0.80;;;9.90;99.90;;;;;;5066840;28;20464;-80
2024/01/26 06:06:13;;;;;;;1.87;1.80;;;9.90;99.90;;;;;;5050189;28;20253;-81
2024/01/26 06:08:42;;;;;;;2.20;2.00;;;9.90;99.90;;;;;;5066290;28;20467;-80
2024/01/26 06:11:10;;;;;;;1.08;0.60;;;9.80;99.90;;;;;;5065536;28;20223;-81
2024/01/26 06:13:37;;;;;;;1.23;1.13;;;9.90;99.90;;;;;;5065313;28;20211;-80
2024/01/26 06:16:04;;;;;;;4.50;3.60;;;9.80;99.90;;;;;;5065300;28;20662;-81
2024/01/26 06:18:31;;;;;;;0.80;0.80;;;9.80;99.90;;;;;;5065889;28;20209;-80
2024/01/26 06:20:58;;;;;;;1.60;1.50;;;9.80;99.90;;;;;;5066470;28;20214;-81
2024/01/26 06:23:25;;;;;;;1.23;1.13;;;9.80;99.90;;;;;;5067227;28;20190;-81
2024/01/26 06:25:54;;;;;;;3.85;1.92;;;9.80;99.90;;;;;;5066086;28;20199;-80
2024/01/26 06:28:21;;;;;;;1.67;1.58;;;9.80;99.90;;;;;;5066953;28;20230;-81
2024/01/26 06:30:48;;;;;;;1.67;1.35;;;9.80;99.90;;;;;;5066154;28;20742;-81
2024/01/26 06:33:15;;;;;;;0.40;0.30;;;9.80;99.90;;;;;;5050951;28;20242;-81
2024/01/26 06:35:42;;;;;;;1.77;1.38;;;9.80;99.90;;;;;;5059734;28;20498;-81
2024/01/26 06:38:09;;;;;;;1.58;1.23;;;9.80;99.90;;;;;;5065430;28;20207;-80
2024/01/26 06:40:37;;;;;;;3.53;2.22;;;9.90;99.90;;;;;;5066177;28;20668;-80
2024/01/26 06:43:07;;;;;;;0.77;0.65;;;9.90;99.90;;;;;;5066255;28;20199;-80
2024/01/26 06:45:35;;;;;;;3.92;2.70;;;9.90;99.90;;;;;;5065752;28;20199;-81
2024/01/26 06:48:02;;;;;;;0.63;0.63;;;9.90;99.90;;;;;;5065864;28;20201;-80
2024/01/26 06:50:29;;;;;;;3.85;1.83;;;9.90;99.90;;;;;;5066167;28;20199;-79
2024/01/26 06:52:56;;;;;;;0.40;0.30;;;9.90;99.90;;;;;;5066609;28;20274;-82
2024/01/26 06:55:24;;;;;;;1.67;1.58;;;9.80;99.90;;;;;;5066621;28;20215;-80
2024/01/26 06:57:51;;;;;;;0.80;0.80;;;9.80;99.90;;;;;;5066581;28;20207;-79
2024/01/26 07:00:20;;;;;;;0.50;0.50;;;9.80;99.90;;;;;;5065786;28;20198;-81
2024/01/26 07:02:47;;;;;;;1.85;1.05;;;9.70;99.90;;;;;;5066037;28;20265;-81
2024/01/26 07:05:14;;;;;;;2.03;1.35;;;9.70;99.90;;;;;;5064448;28;20768;-82
2024/01/26 07:07:41;;;;;;;0.40;0.40;;;9.70;99.90;;;;;;5061594;28;20207;-81
2024/01/26 07:10:09;;;;;;;1.20;1.13;;;9.60;99.90;;;;;;5059088;28;20229;-78
2024/01/26 07:12:36;;;;;;;0.40;0.40;;;9.70;99.90;;;;;;5060502;28;20465;-82
2024/01/26 07:15:04;;;;;;;1.67;1.27;;;9.70;99.90;;;;;;5060814;28;20261;-80
2024/01/26 07:17:32;;;;;;;1.05;0.82;;;9.70;99.90;;;;;;5060565;28;20237;-80
2024/01/26 07:19:59;;;;;;;2.88;1.17;;;9.70;99.90;;;;;;5058356;28;20216;-79
2024/01/26 07:22:26;;;;;;;0.93;0.77;;;9.70;99.90;;;;;;5057226;28;20272;-79
2024/01/26 07:24:54;;;;;;;8.03;4.33;;;9.60;99.90;;;;;;5056245;28;20444;-79
2024/01/26 07:27:21;;;;;;;3.75;1.65;;;9.60;99.90;;;;;;5058398;28;20499;-79
2024/01/26 07:29:48;;;;;;;1.67;1.58;;;9.70;99.90;;;;;;5058458;28;20199;-81
2024/01/26 07:32:15;;;;;;;0.83;0.83;;;9.70;99.90;;;;;;5058332;28;20211;-79
2024/01/26 07:34:44;;;;;;;0.50;0.40;;;9.70;99.90;;;;;;5059106;28;20526;-79
2024/01/26 07:37:11;;;;;;;0.80;0.80;;;9.70;99.90;;;;;;5055957;28;20979;-79
2024/01/26 07:39:38;;;;;;;0.50;0.50;;;9.70;99.90;;;;;;5065695;28;20222;-79
2024/01/26 07:42:05;;;;;;;1.35;1.25;;;9.60;99.90;;;;;;5073432;28;20285;-77
2024/01/26 07:44:32;;;;;;;1.23;1.13;;;9.60;99.90;;;;;;5060705;28;20229;-80
2024/01/26 07:46:59;;;;;;;0.93;0.93;;;9.60;99.90;;;;;;5057257;28;20729;-80
2024/01/26 07:49:26;;;;;;;1.58;1.35;;;9.60;99.90;;;;;;5059641;28;20255;-80
2024/01/26 07:51:54;;;;;;;1.13;0.98;;;9.60;99.90;;;;;;5057499;28;20222;-79
2024/01/26 07:54:21;;;;;;;1.55;0.82;;;9.60;99.90;;;;;;5056866;28;20268;-77
2024/01/26 07:56:48;;;;;;;2.30;2.10;;;9.50;99.90;;;;;;5057053;28;20203;-78
2024/01/26 07:59:15;;;;;;;0.83;0.83;;;9.60;99.90;;;;;;5056102;28;20496;-77
2024/01/26 08:01:42;;;;;;;1.23;1.08;;;9.60;99.90;;;;;;5056447;28;20468;-78
2024/01/26 08:04:09;;;;;;;0.70;0.60;;;9.60;99.90;;;;;;5055772;28;20203;-79
2024/01/26 08:06:36;;;;;;;4.82;3.97;;;9.60;99.90;;;;;;5055457;28;20249;-79
2024/01/26 08:09:05;;;;;;;0.70;0.60;;;9.50;99.90;;;;;;5055411;28;20203;-81
2024/01/26 08:11:32;;;;;;;1.05;0.75;;;9.60;99.90;;;;;;5056364;28;20223;-82
2024/01/26 08:14:00;;;;;;;1.50;1.10;;;9.60;99.90;;;;;;5069388;22;20210;-80
2024/01/26 08:16:27;;;;;;;5.03;1.08;;;9.60;99.90;;;;;;5054453;28;20202;-79
2024/01/26 08:18:54;;;;;;;0.68;0.68;;;9.60;99.90;;;;;;5076384;28;20202;-77
2024/01/26 08:21:22;;;;;;;1.50;1.23;;;9.60;99.90;;;;;;5077343;28;20194;-83
2024/01/26 08:23:49;;;;;;;1.05;1.05;;;9.60;99.90;;;;;;5075205;28;20229;-82
2024/01/26 08:26:18;;;;;;;1.90;1.80;;;9.60;99.90;;;;;;5056999;28;20207;-83
2024/01/26 08:28:45;;;;;;;2.50;1.30;;;9.60;99.90;;;;;;5057375;28;21023;-79
2024/01/26 08:31:13;;;;;;;2.47;2.10;;;9.60;99.90;;;;;;5057355;28;20909;-80
2024/01/26 08:33:40;;;;;;;3.17;2.30;;;9.60;99.90;;;;;;5056551;28;20366;-82
2024/01/26 08:36:07;;;;;;;0.70;0.70;;;9.60;99.90;;;;;;5056550;28;20612;-81
2024/01/26 08:38:34;;;;;;;2.72;2.53;;;9.70;99.90;;;;;;5056775;28;20199;-82
2024/01/26 08:41:01;;;;;;;2.37;2.27;;;9.70;99.90;;;;;;5056558;28;20203;-83
2024/01/26 08:43:30;;;;;;;0.70;0.50;;;9.70;99.90;;;;;;5057496;28;20472;-83
2024/01/26 08:45:56;;;;;;;6.57;1.80;;;9.80;99.90;;;;;;5056272;28;20223;-82
2024/01/26 08:48:23;;;;;;;1.15;1.00;;;9.80;99.90;;;;;;5040082;28;20507;-83
2024/01/26 08:50:51;;;;;;;0.70;0.70;;;9.80;99.90;;;;;;5056463;28;20199;-81
2024/01/26 08:53:18;;;;;;;3.58;3.35;;;9.80;99.90;;;;;;5056403;28;20442;-81
2024/01/26 08:55:45;;;;;;;2.50;1.73;;;9.80;99.90;;;;;;5059196;28;20377;-81
2024/01/26 08:58:12;;;;;;;2.22;2.10;;;9.80;99.90;;;;;;5055855;28;20438;-83
2024/01/26 09:00:40;;;;;;;2.10;2.00;;;9.90;99.90;;;;;;5061165;28;20249;-85
2024/01/26 09:03:07;;;;;;;3.47;1.40;;;9.90;99.90;;;;;;5058153;28;20446;-81
2024/01/26 09:05:34;;;;;;;1.58;1.48;;;10.00;99.90;;;;;;5058138;28;20458;-82
